Time,TemperatureF,DewpointF,PressureIn,WindDirection,WindDirectionDegrees,WindSpeedMPH,WindSpeedGustMPH,Humidity,HourlyPrecipIn,Conditions,Clouds,dailyrainin,SoftwareType,DateUTC
2013-05-19 00:00:00,67.3,65.0,29.92,SW,232,0.0,0.0,91,0.00,,,0.00,weatherlink.com 1.10,2013-05-19 04:00:00,
2013-05-19 00:15:00,66.9,64.0,29.92,SW,232,0.0,0.0,91,0.00,,,0.00,weatherlink.com 1.10,2013-05-19 04:15:00,
2013-05-19 00:30:00,66.4,64.0,29.92,SW,232,0.0,0.0,92,0.00,,,0.00,weatherlink.com 1.10,2013-05-19 04:30:00,
2013-05-19 00:45:00,66.1,64.0,29.92,SW,232,0.0,0.0,93,0.00,,,0.00,weatherlink.com 1.10,2013-05-19 04:45:00,
2013-05-19 01:00:00,65.8,64.0,29.91,SW,232,0.0,0.0,93,0.00,,,0.00,weatherlink.com 1.10,2013-05-19 05:00:00,
2013-05-19 01:15:00,65.7,64.0,29.91,SW,232,0.0,0.0,94,0.00,,,0.00,weatherlink.com 1.10,2013-05-19 05:15:00,
2013-05-19 01:30:00,65.4,64.0,29.91,SW,232,0.0,0.0,94,0.00,,,0.00,weatherlink.com 1.10,2013-05-19 05:30:00,
2013-05-19 01:45:00,65.1,63.0,29.90,SW,232,0.0,0.0,94,0.00,,,0.00,weatherlink.com 1.10,2013-05-19 05:45:00,
2013-05-19 02:00:00,65.0,63.0,29.90,SSW,197,0.0,0.0,94,0.00,,,0.00,weatherlink.com 1.10,2013-05-19 06:00:00,
2013-05-19 02:15:00,64.8,63.0,29.90,SSW,197,0.0,0.0,95,0.00,,,0.00,weatherlink.com 1.10,2013-05-19 06:15:00,
2013-05-19 02:30:00,64.5,63.0,29.90,SSW,197,0.0,0.0,95,0.00,,,0.00,weatherlink.com 1.10,2013-05-19 06:30:00,
2013-05-19 02:45:00,64.4,63.0,29.90,SSW,197,0.0,0.0,95,0.00,,,0.00,weatherlink.com 1.10,2013-05-19 06:45:00,
2013-05-19 03:00:00,64.2,63.0,29.91,SSW,197,0.0,0.0,95,0.00,,,0.00,weatherlink.com 1.10,2013-05-19 07:00:00,
2013-05-19 03:15:00,63.9,63.0,29.90,SSW,197,0.0,0.0,96,0.00,,,0.00,weatherlink.com 1.10,2013-05-19 07:15:00,
2013-05-19 03:30:00,63.7,63.0,29.91,SSW,197,0.0,0.0,96,0.00,,,0.00,weatherlink.com 1.10,2013-05-19 07:30:00,
2013-05-19 03:45:00,63.4,62.0,29.91,SSW,197,0.0,0.0,96,0.00,,,0.00,weatherlink.com 1.10,2013-05-19 07:45:00,
2013-05-19 04:00:00,63.2,62.0,29.91,SSW,197,0.0,0.0,96,0.00,,,0.00,weatherlink.com 1.10,2013-05-19 08:00:00,
2013-05-19 04:15:00,62.9,62.0,29.92,SSW,197,0.0,0.0,96,0.00,,,0.00,weatherlink.com 1.10,2013-05-19 08:15:00,
2013-05-19 04:30:00,62.9,62.0,29.92,SSW,197,0.0,0.0,96,0.00,,,0.00,weatherlink.com 1.10,2013-05-19 08:30:00,
2013-05-19 04:45:00,62.8,62.0,29.92,SSW,197,0.0,0.0,96,0.00,,,0.00,weatherlink.com 1.10,2013-05-19 08:45:00,
2013-05-19 05:00:00,62.7,62.0,29.92,SSW,197,0.0,0.0,96,0.00,,,0.00,weatherlink.com 1.10,2013-05-19 09:00:00,
2013-05-19 05:15:00,62.6,62.0,29.92,SSW,197,0.0,0.0,96,0.00,,,0.00,weatherlink.com 1.10,2013-05-19 09:15:00,
2013-05-19 05:30:00,62.4,61.0,29.92,SSW,197,0.0,0.0,96,0.00,,,0.00,weatherlink.com 1.10,2013-05-19 09:30:00,
2013-05-19 05:45:00,62.2,61.0,29.92,SSW,197,0.0,0.0,96,0.00,,,0.00,weatherlink.com 1.10,2013-05-19 09:45:00,
2013-05-19 06:00:00,62.0,61.0,29.91,SSW,197,0.0,0.0,97,0.00,,,0.00,weatherlink.com 1.10,2013-05-19 10:00:00,
2013-05-19 06:15:00,61.8,61.0,29.91,SSW,197,0.0,0.0,96,0.00,,,0.00,weatherlink.com 1.10,2013-05-19 10:15:00,
2013-05-19 06:30:00,61.4,61.0,29.91,SSW,197,0.0,0.0,97,0.00,,,0.00,weatherlink.com 1.10,2013-05-19 10:30:00,
2013-05-19 06:45:00,61.3,61.0,29.90,SSW,197,0.0,0.0,97,0.00,,,0.00,weatherlink.com 1.10,2013-05-19 10:45:00,
2013-05-19 07:00:00,61.5,61.0,29.92,SSW,197,0.0,-999.0,97,-99.99,,,0.00,weatherlink.com 1.10,2013-05-19 11:00:00,
2013-05-19 07:15:00,61.7,61.0,29.92,SSW,197,0.0,0.0,97,0.00,,,0.00,weatherlink.com 1.10,2013-05-19 11:15:00,
2013-05-19 07:30:00,62.5,62.0,29.93,SSW,197,0.0,0.0,97,0.00,,,0.00,weatherlink.com 1.10,2013-05-19 11:30:00,
2013-05-19 07:45:00,63.1,62.0,29.93,WSW,245,0.0,0.0,97,0.00,,,0.00,weatherlink.com 1.10,2013-05-19 11:45:00,
2013-05-19 08:04:00,64.1,63.0,29.94,NW,326,0.0,0.0,97,0.00,,,0.00,weatherlink.com 1.10,2013-05-19 12:04:00,
2013-05-19 08:15:00,65.4,65.0,29.94,NNW,329,0.0,0.0,97,0.00,,,0.00,weatherlink.com 1.10,2013-05-19 12:15:00,
2013-05-19 08:30:00,68.5,67.0,29.94,NNW,329,0.0,0.0,94,0.00,,,0.00,weatherlink.com 1.10,2013-05-19 12:30:00,
2013-05-19 08:45:00,70.1,66.0,29.93,NNE,23,0.0,0.0,87,0.00,,,0.00,weatherlink.com 1.10,2013-05-19 12:45:00,
2013-05-19 09:00:00,71.2,67.0,29.93,ENE,72,0.0,0.0,87,0.00,,,0.00,weatherlink.com 1.10,2013-05-19 13:00:00,
2013-05-19 09:16:00,72.8,68.0,29.93,SSE,156,0.0,0.0,84,0.00,,,0.00,weatherlink.com 1.10,2013-05-19 13:16:00,
2013-05-19 09:31:00,72.7,68.0,29.95,East,91,0.0,0.0,84,0.00,,,0.00,weatherlink.com 1.10,2013-05-19 13:31:00,
2013-05-19 09:46:00,74.7,69.0,29.95,SSE,152,0.0,0.0,82,0.00,,,0.00,weatherlink.com 1.10,2013-05-19 13:46:00,
2013-05-19 10:01:00,74.4,69.0,29.95,SSE,160,0.0,0.0,82,0.00,,,0.00,weatherlink.com 1.10,2013-05-19 14:01:00,
2013-05-19 10:16:00,75.1,69.0,29.95,SSE,152,0.0,1.0,82,0.00,,,0.00,weatherlink.com 1.10,2013-05-19 14:16:00,
2013-05-19 10:31:00,76.7,70.0,29.95,SSE,156,1.0,5.0,79,0.00,,,0.00,weatherlink.com 1.10,2013-05-19 14:31:00,
2013-05-19 10:46:00,76.4,69.0,29.94,WNW,301,1.0,5.0,79,0.00,,,0.00,weatherlink.com 1.10,2013-05-19 14:46:00,
2013-05-19 11:01:00,78.2,70.0,29.95,SSW,207,1.0,4.0,76,0.00,,,0.00,weatherlink.com 1.10,2013-05-19 15:01:00,
2013-05-19 11:16:00,79.6,71.0,29.94,SE,132,1.0,5.0,74,0.00,,,0.00,weatherlink.com 1.10,2013-05-19 15:16:00,
2013-05-19 11:31:00,81.2,70.0,29.93,NNE,16,1.0,4.0,69,0.00,,,0.00,weatherlink.com 1.10,2013-05-19 15:31:00,
2013-05-19 11:46:00,81.5,70.0,29.93,SW,214,1.0,4.0,69,0.00,,,0.00,weatherlink.com 1.10,2013-05-19 15:46:00,
2013-05-19 12:01:00,81.0,69.0,29.93,WNW,286,1.0,6.0,66,0.00,,,0.00,weatherlink.com 1.10,2013-05-19 16:01:00,
2013-05-19 12:16:00,83.1,70.0,29.92,SSE,159,1.0,7.0,64,0.00,,,0.00,weatherlink.com 1.10,2013-05-19 16:16:00,
2013-05-19 12:31:00,83.2,69.0,29.92,SE,135,0.0,3.0,63,0.00,,,0.00,weatherlink.com 1.10,2013-05-19 16:31:00,
2013-05-19 12:46:00,83.0,70.0,29.92,SW,225,0.0,3.0,64,0.00,,,0.00,weatherlink.com 1.10,2013-05-19 16:46:00,
2013-05-19 13:01:00,84.5,70.0,29.91,NE,41,2.0,4.0,61,0.00,,,0.00,weatherlink.com 1.10,2013-05-19 17:01:00,
2013-05-19 13:16:00,86.0,69.0,29.90,SE,134,0.0,4.0,58,0.00,,,0.00,weatherlink.com 1.10,2013-05-19 17:16:00,
2013-05-19 13:31:00,85.2,69.0,29.89,NW,316,2.0,5.0,59,0.00,,,0.00,weatherlink.com 1.10,2013-05-19 17:31:00,
2013-05-19 13:46:00,86.3,69.0,29.88,WSW,248,2.0,6.0,57,0.00,,,0.00,weatherlink.com 1.10,2013-05-19 17:46:00,
2013-05-19 14:01:00,85.6,69.0,29.88,WNW,290,2.0,5.0,57,0.00,,,0.00,weatherlink.com 1.10,2013-05-19 18:01:00,
2013-05-19 14:16:00,86.6,68.0,29.87,ESE,110,0.0,6.0,54,0.00,,,0.00,weatherlink.com 1.10,2013-05-19 18:16:00,
2013-05-19 14:31:00,86.1,69.0,29.87,WSW,240,3.0,4.0,56,0.00,,,0.00,weatherlink.com 1.10,2013-05-19 18:31:00,
2013-05-19 14:46:00,88.7,69.0,29.87,SE,145,4.0,5.0,52,0.00,,,0.00,weatherlink.com 1.10,2013-05-19 18:46:00,
2013-05-19 15:01:00,88.0,69.0,29.86,SE,143,2.0,8.0,54,0.00,,,0.00,weatherlink.com 1.10,2013-05-19 19:01:00,
2013-05-19 15:16:00,87.8,69.0,29.86,SSE,150,2.0,5.0,54,0.00,,,0.00,weatherlink.com 1.10,2013-05-19 19:16:00,
2013-05-19 15:31:00,87.1,69.0,29.86,SW,230,0.0,5.0,56,0.00,,,0.00,weatherlink.com 1.10,2013-05-19 19:31:00,
2013-05-19 15:46:00,88.2,70.0,29.86,SE,146,2.0,5.0,55,0.00,,,0.00,weatherlink.com 1.10,2013-05-19 19:46:00,
2013-05-19 16:01:00,86.9,70.0,29.86,West,266,0.0,6.0,57,0.00,,,0.00,weatherlink.com 1.10,2013-05-19 20:01:00,
2013-05-19 16:16:00,86.4,69.0,29.87,SSE,160,2.0,5.0,57,0.00,,,0.00,weatherlink.com 1.10,2013-05-19 20:16:00,
2013-05-19 16:31:00,85.4,70.0,29.86,SSW,200,0.0,3.0,61,0.00,,,0.00,weatherlink.com 1.10,2013-05-19 20:31:00,
2013-05-19 16:46:00,87.4,71.0,29.84,SW,231,4.0,5.0,59,0.00,,,0.00,weatherlink.com 1.10,2013-05-19 20:46:00,
2013-05-19 17:01:00,87.0,70.0,29.84,ESE,112,2.0,3.0,58,0.00,,,0.00,weatherlink.com 1.10,2013-05-19 21:01:00,
2013-05-19 17:16:00,86.6,71.0,29.85,SSE,159,3.0,5.0,59,0.00,,,0.00,weatherlink.com 1.10,2013-05-19 21:16:00,
2013-05-19 17:31:00,87.3,71.0,29.84,WNW,295,0.0,5.0,58,0.00,,,0.00,weatherlink.com 1.10,2013-05-19 21:31:00,
2013-05-19 17:46:00,88.3,71.0,29.84,South,173,2.0,4.0,56,0.00,,,0.00,weatherlink.com 1.10,2013-05-19 21:46:00,
2013-05-19 18:01:00,87.6,71.0,29.84,WSW,242,1.0,4.0,58,0.00,,,0.00,weatherlink.com 1.10,2013-05-19 22:01:00,
2013-05-19 18:16:00,86.6,71.0,29.84,SSW,211,2.0,6.0,59,0.00,,,0.00,weatherlink.com 1.10,2013-05-19 22:16:00,
2013-05-19 18:31:00,86.0,71.0,29.84,West,263,0.0,5.0,62,0.00,,,0.00,weatherlink.com 1.10,2013-05-19 22:31:00,
2013-05-19 18:46:00,86.4,71.0,29.84,SW,232,1.0,2.0,61,0.00,,,0.00,weatherlink.com 1.10,2013-05-19 22:46:00,
2013-05-19 19:01:00,87.4,72.0,29.83,SE,145,2.0,2.0,60,0.00,,,0.00,weatherlink.com 1.10,2013-05-19 23:01:00,
2013-05-19 19:16:00,86.5,71.0,29.83,SW,232,0.0,3.0,61,0.00,,,0.00,weatherlink.com 1.10,2013-05-19 23:16:00,
2013-05-19 19:31:00,85.1,72.0,29.84,SW,217,1.0,6.0,65,0.00,,,0.00,weatherlink.com 1.10,2013-05-19 23:31:00,
2013-05-19 19:46:00,84.1,72.0,29.83,SSE,152,0.0,3.0,67,0.00,,,0.00,weatherlink.com 1.10,2013-05-19 23:46:00,
2013-05-19 20:02:00,83.1,71.0,29.83,South,181,2.0,6.0,67,0.00,,,0.00,weatherlink.com 1.10,2013-05-20 00:02:00,
2013-05-19 20:17:00,82.5,71.0,29.83,SW,234,0.0,6.0,69,0.00,,,0.00,weatherlink.com 1.10,2013-05-20 00:17:00,
2013-05-19 20:47:00,80.8,71.0,29.84,SE,145,1.0,5.0,71,0.00,,,0.00,weatherlink.com 1.10,2013-05-20 00:47:00,
2013-05-19 21:02:00,80.1,70.0,29.84,SW,226,0.0,3.0,72,0.00,,,0.00,weatherlink.com 1.10,2013-05-20 01:02:00,
2013-05-19 21:17:00,79.4,70.0,29.84,SSW,192,1.0,4.0,74,0.00,,,0.00,weatherlink.com 1.10,2013-05-20 01:17:00,
2013-05-19 21:48:00,78.4,70.0,29.85,WSW,248,0.0,3.0,76,0.00,,,0.00,weatherlink.com 1.10,2013-05-20 01:48:00,
2013-05-19 22:16:00,77.4,70.0,29.86,WSW,240,2.0,2.0,79,0.00,,,0.00,weatherlink.com 1.10,2013-05-20 02:16:00,
2013-05-19 22:32:00,76.8,70.0,29.86,SW,222,0.0,1.0,80,0.00,,,0.00,weatherlink.com 1.10,2013-05-20 02:32:00,
2013-05-19 22:46:00,76.8,71.0,29.86,SSE,159,1.0,5.0,83,0.00,,,0.00,weatherlink.com 1.10,2013-05-20 02:46:00,
2013-05-19 23:02:00,76.8,72.0,29.87,WSW,242,1.0,5.0,84,0.00,,,0.00,weatherlink.com 1.10,2013-05-20 03:02:00,
2013-05-19 23:16:00,76.6,72.0,29.88,South,184,0.0,2.0,84,0.00,,,0.00,weatherlink.com 1.10,2013-05-20 03:16:00,
2013-05-19 23:31:00,76.4,71.0,29.88,West,263,1.0,7.0,83,0.00,,,0.00,weatherlink.com 1.10,2013-05-20 03:31:00,
2013-05-19 23:47:00,76.2,70.0,29.88,SSW,192,3.0,9.0,81,0.00,,,0.00,weatherlink.com 1.10,2013-05-20 03:47:00,